createdAt,value
2023-05-21T00:00:42.974Z,14.70
2023-05-21T00:03:14.205Z,14.70
2023-05-21T00:05:42.478Z,14.70
2023-05-21T00:08:10.976Z,14.70
2023-05-21T00:10:39.177Z,14.70
2023-05-21T00:13:09.024Z,14.70
2023-05-21T00:15:38.775Z,14.70
2023-05-21T00:18:07.044Z,14.70
2023-05-21T00:20:35.649Z,14.70
2023-05-21T00:23:04.116Z,14.70
2023-05-21T00:25:32.360Z,14.70
2023-05-21T00:28:00.439Z,14.70
2023-05-21T00:30:28.557Z,14.70
2023-05-21T00:32:58.897Z,14.70
2023-05-21T00:35:27.079Z,14.70
2023-05-21T00:37:55.486Z,14.70
2023-05-21T00:40:23.613Z,14.70
2023-05-21T00:42:51.740Z,14.70
2023-05-21T00:45:20.140Z,14.70
2023-05-21T00:47:48.566Z,14.60
2023-05-21T00:50:18.231Z,14.60
2023-05-21T00:52:46.411Z,14.60
2023-05-21T00:55:14.589Z,14.60
2023-05-21T00:57:43.540Z,14.60
2023-05-21T01:00:14.484Z,14.50
2023-05-21T01:02:44.221Z,14.50
2023-05-21T01:05:13.090Z,14.50
2023-05-21T01:07:43.448Z,14.50
2023-05-21T01:10:13.033Z,14.40
2023-05-21T01:12:42.862Z,14.50
2023-05-21T01:15:12.076Z,14.50
2023-05-21T01:17:41.417Z,14.50
2023-05-21T01:20:11.400Z,14.50
2023-05-21T01:22:44.813Z,14.60
2023-05-21T01:25:15.118Z,14.60
2023-05-21T01:27:43.269Z,14.60
2023-05-21T01:30:12.451Z,14.60
2023-05-21T01:32:48.951Z,14.60
2023-05-21T01:35:23.334Z,14.60
2023-05-21T01:37:56.721Z,14.60
2023-05-21T01:40:32.866Z,14.50
2023-05-21T01:43:01.354Z,14.50
2023-05-21T01:45:32.538Z,14.50
2023-05-21T01:48:01.138Z,14.50
2023-05-21T01:50:31.919Z,14.50
2023-05-21T01:53:01.124Z,14.40
2023-05-21T01:55:31.319Z,14.40
2023-05-21T01:58:02.462Z,14.40
2023-05-21T02:00:32.655Z,14.40
2023-05-21T02:03:00.851Z,14.30
2023-05-21T02:05:29.044Z,14.30
2023-05-21T02:07:57.244Z,14.20
2023-05-21T02:10:25.389Z,14.20
2023-05-21T02:12:54.879Z,14.20
2023-05-21T02:15:24.992Z,14.20
2023-05-21T02:17:53.201Z,14.10
2023-05-21T02:20:22.730Z,14.10
2023-05-21T02:22:51.037Z,14.20
2023-05-21T02:25:20.776Z,14.10
2023-05-21T02:27:52.832Z,14.10
2023-05-21T02:30:22.355Z,14.10
2023-05-21T02:32:50.819Z,14.10
2023-05-21T02:35:19.208Z,14.10
2023-05-21T02:37:47.347Z,14.10
2023-05-21T02:40:15.663Z,14.10
2023-05-21T02:42:43.717Z,14.10
2023-05-21T02:45:13.246Z,14.10
2023-05-21T02:47:42.903Z,14.10
2023-05-21T02:50:11.232Z,14.10
2023-05-21T02:52:39.303Z,14.10
2023-05-21T02:55:08.500Z,14.10
2023-05-21T02:57:36.614Z,14.10
2023-05-21T03:00:06.030Z,14.10
2023-05-21T03:07:56.520Z,14.00
2023-05-21T03:10:24.628Z,14.00
2023-05-21T03:12:54.817Z,14.00
2023-05-21T03:15:24.215Z,14.00
2023-05-21T03:17:54.254Z,14.00
2023-05-21T03:20:22.561Z,14.00
2023-05-21T03:22:50.706Z,14.00
2023-05-21T03:25:21.522Z,14.00
2023-05-21T03:27:49.618Z,14.00
2023-05-21T03:30:17.974Z,14.00
2023-05-21T03:32:46.193Z,14.00
2023-05-21T03:35:14.402Z,13.90
2023-05-21T03:37:42.551Z,13.90
2023-05-21T03:40:11.590Z,13.90
2023-05-21T03:42:41.093Z,13.80
2023-05-21T03:45:10.147Z,13.80
2023-05-21T03:47:38.345Z,13.80
2023-05-21T03:50:07.604Z,13.80
2023-05-21T03:52:36.250Z,13.80
2023-05-21T03:55:04.536Z,13.80
2023-05-21T03:57:32.670Z,13.80
2023-05-21T04:00:02.669Z,13.80
2023-05-21T04:02:30.948Z,13.80
2023-05-21T04:04:59.082Z,13.80
2023-05-21T04:07:27.292Z,13.80
2023-05-21T04:09:55.444Z,13.70
2023-05-21T04:16:19.275Z,13.80
2023-05-21T04:18:48.109Z,13.80
2023-05-21T04:21:16.303Z,13.80
2023-05-21T04:23:44.431Z,13.80
2023-05-21T04:26:12.779Z,13.90
2023-05-21T04:28:42.095Z,13.90
2023-05-21T04:31:13.026Z,13.90
2023-05-21T04:33:46.104Z,14.00
2023-05-21T04:36:17.362Z,14.00
2023-05-21T04:38:45.883Z,14.00
2023-05-21T04:41:15.103Z,14.00
2023-05-21T04:43:44.242Z,14.00
2023-05-21T04:46:12.586Z,14.00
2023-05-21T04:48:42.376Z,14.00
2023-05-21T05:06:36.328Z,14.10
2023-05-21T05:09:04.921Z,14.20
2023-05-21T05:11:33.239Z,14.20
2023-05-21T05:14:01.377Z,14.20
2023-05-21T05:16:29.679Z,14.30
2023-05-21T05:18:58.288Z,14.30
2023-05-21T05:21:26.438Z,14.40
2023-05-21T05:23:55.917Z,14.40
2023-05-21T05:26:24.101Z,14.40
2023-05-21T05:28:52.211Z,14.40
2023-05-21T05:31:20.402Z,14.50
2023-05-21T05:33:49.704Z,14.50
2023-05-21T05:36:17.939Z,14.50
2023-05-21T05:38:46.101Z,14.50
2023-05-21T05:41:15.648Z,14.60
2023-05-21T05:43:43.800Z,14.50
2023-05-21T05:46:12.024Z,14.60
2023-05-21T05:48:40.225Z,14.50
2023-05-21T05:51:08.324Z,14.60
2023-05-21T05:53:36.484Z,14.50
2023-05-21T05:56:05.052Z,14.60
2023-05-21T05:58:34.609Z,14.60
2023-05-21T06:01:03.076Z,14.70
2023-05-21T06:03:31.604Z,14.80
2023-05-21T06:10:00.840Z,14.90
2023-05-21T06:12:28.964Z,15.20
2023-05-21T06:14:58.603Z,15.50
2023-05-21T06:17:26.852Z,15.40
2023-05-21T06:19:55.077Z,15.60
2023-05-21T06:22:24.908Z,15.70
2023-05-21T06:24:53.793Z,15.90
2023-05-21T06:27:21.930Z,16.10
2023-05-21T06:29:50.149Z,16.80
2023-05-21T06:32:21.408Z,17.40
2023-05-21T06:34:49.646Z,17.70
2023-05-21T06:37:21.712Z,17.90
2023-05-21T06:39:50.048Z,17.80
2023-05-21T06:42:18.188Z,17.90
2023-05-21T06:44:46.447Z,18.00
2023-05-21T06:47:14.611Z,17.90
2023-05-21T06:49:44.076Z,17.70
2023-05-21T06:52:12.367Z,17.60
2023-05-21T06:54:40.674Z,18.20
2023-05-21T06:57:08.979Z,18.10
2023-05-21T06:59:37.124Z,18.50
2023-05-21T07:02:05.417Z,19.00
2023-05-21T07:04:35.278Z,19.10
2023-05-21T07:07:05.640Z,19.60
2023-05-21T07:09:33.817Z,19.20
2023-05-21T07:12:02.354Z,19.70
2023-05-21T07:14:30.918Z,20.30
2023-05-21T07:16:59.172Z,20.70
2023-05-21T07:19:27.458Z,20.50
2023-05-21T07:21:56.658Z,20.40
2023-05-21T07:24:28.788Z,20.30
2023-05-21T07:26:56.963Z,20.50
2023-05-21T07:29:25.140Z,20.70
2023-05-21T07:31:53.474Z,20.80
2023-05-21T07:34:21.646Z,21.00
2023-05-21T07:36:49.884Z,21.00
2023-05-21T07:39:18.039Z,20.90
2023-05-21T07:41:47.529Z,21.40
2023-05-21T07:44:15.731Z,21.70
2023-05-21T07:46:43.948Z,22.00
2023-05-21T07:49:16.764Z,22.20
2023-05-21T07:51:48.003Z,21.50
2023-05-21T07:54:16.232Z,21.30
2023-05-21T07:56:44.358Z,21.40
2023-05-21T07:59:16.020Z,22.20
2023-05-21T08:01:44.491Z,22.60
2023-05-21T08:04:13.515Z,22.40
2023-05-21T08:06:41.760Z,22.20
2023-05-21T08:09:09.969Z,22.30
2023-05-21T08:20:51.719Z,22.80
2023-05-21T08:23:19.976Z,22.60
2023-05-21T08:25:48.201Z,23.00
2023-05-21T08:28:16.456Z,23.20
2023-05-21T08:30:44.570Z,22.90
2023-05-21T08:42:58.819Z,23.70
2023-05-21T08:45:31.338Z,24.70
2023-05-21T08:48:00.551Z,24.10
2023-05-21T08:50:29.474Z,23.90
2023-05-21T08:52:59.002Z,23.90
2023-05-21T08:55:27.601Z,24.00
2023-05-21T08:57:56.370Z,24.00
2023-05-21T09:00:24.675Z,24.10
2023-05-21T09:02:56.225Z,23.40
2023-05-21T09:05:26.166Z,23.60
2023-05-21T09:08:01.940Z,23.70
2023-05-21T09:10:37.392Z,23.50
2023-05-21T09:13:08.140Z,23.50
2023-05-21T09:15:36.563Z,23.90
2023-05-21T09:18:06.448Z,24.70
2023-05-21T09:20:36.300Z,24.90
2023-05-21T09:23:06.168Z,25.50
2023-05-21T09:25:34.708Z,25.10
2023-05-21T09:28:02.954Z,25.30
2023-05-21T09:30:33.305Z,24.70
2023-05-21T09:33:03.402Z,24.50
2023-05-21T09:35:36.225Z,24.30
2023-05-21T09:38:10.591Z,24.30
2023-05-21T09:40:44.572Z,24.20
2023-05-21T09:43:15.583Z,24.90
2023-05-21T09:45:53.508Z,25.00
2023-05-21T09:48:34.974Z,24.80
2023-05-21T09:51:16.056Z,24.20
2023-05-21T09:53:45.571Z,23.90
2023-05-21T09:56:13.829Z,23.60
2023-05-21T09:58:42.104Z,23.80
2023-05-21T10:01:12.509Z,23.80
2023-05-21T10:03:42.570Z,23.40
2023-05-21T10:06:11.744Z,23.40
2023-05-21T10:08:46.034Z,23.50
2023-05-21T10:11:14.789Z,23.30
2023-05-21T10:13:49.503Z,23.20
2023-05-21T10:16:19.042Z,23.30
2023-05-21T10:18:49.617Z,23.10
2023-05-21T10:21:19.254Z,23.20
2023-05-21T10:23:50.074Z,23.40
2023-05-21T10:26:19.597Z,23.00
2023-05-21T10:28:47.814Z,22.70
2023-05-21T10:31:16.716Z,23.00
2023-05-21T10:33:45.334Z,23.10
2023-05-21T10:36:14.494Z,23.30
2023-05-21T10:38:45.645Z,23.50
2023-05-21T10:41:18.298Z,23.30
2023-05-21T10:43:52.414Z,23.20
2023-05-21T10:46:53.722Z,22.80
2023-05-21T10:49:36.482Z,22.90
2023-05-21T10:52:14.886Z,23.20
2023-05-21T10:55:18.831Z,23.30
2023-05-21T10:58:18.962Z,22.70
2023-05-21T11:00:47.701Z,22.60
2023-05-21T11:03:17.270Z,22.80
2023-05-21T11:05:53.443Z,22.60
2023-05-21T11:08:25.468Z,22.40
2023-05-21T11:10:55.158Z,22.20
2023-05-21T11:13:24.840Z,22.10
2023-05-21T11:16:09.034Z,22.20
2023-05-21T11:19:00.159Z,22.10
2023-05-21T11:21:31.540Z,22.00
2023-05-21T11:24:04.672Z,22.00
2023-05-21T11:27:02.339Z,22.20
2023-05-21T11:33:22.514Z,22.20
2023-05-21T11:36:00.482Z,22.50
2023-05-21T11:38:30.980Z,22.50
2023-05-21T11:41:04.219Z,22.60
2023-05-21T11:47:23.325Z,22.30
2023-05-21T11:49:53.065Z,22.20
2023-05-21T12:03:44.162Z,22.50
2023-05-21T12:06:14.168Z,22.70
2023-05-21T12:08:42.317Z,22.60
2023-05-21T12:11:11.181Z,22.60
2023-05-21T12:13:39.599Z,22.60
2023-05-21T12:16:09.073Z,22.60
2023-05-21T12:18:38.318Z,22.50
2023-05-21T12:21:06.981Z,22.40
2023-05-21T12:23:37.386Z,22.40
2023-05-21T12:26:06.448Z,22.60
2023-05-21T12:28:34.609Z,22.70
2023-05-21T12:42:40.256Z,23.10
2023-05-21T12:45:09.861Z,23.30
2023-05-21T12:47:38.568Z,23.30
2023-05-21T12:50:11.826Z,23.40
2023-05-21T12:52:43.115Z,23.40
2023-05-21T12:55:14.425Z,23.30
2023-05-21T12:57:44.356Z,23.20
2023-05-21T13:00:14.272Z,23.10
2023-05-21T13:02:44.154Z,23.20
2023-05-21T13:05:18.271Z,23.20
2023-05-21T13:07:48.000Z,23.30
2023-05-21T13:10:17.384Z,23.30
2023-05-21T13:12:47.391Z,23.40
2023-05-21T13:15:15.802Z,23.20
2023-05-21T13:17:44.190Z,23.10
2023-05-21T13:20:14.999Z,23.00
2023-05-21T13:22:46.830Z,22.90
2023-05-21T13:25:20.289Z,22.90
2023-05-21T13:27:51.326Z,22.90
2023-05-21T13:30:19.767Z,23.20
2023-05-21T13:32:48.648Z,23.20
2023-05-21T13:35:17.758Z,23.40
2023-05-21T13:37:46.218Z,23.60
2023-05-21T13:40:16.337Z,23.80
2023-05-21T13:42:46.165Z,24.20
2023-05-21T13:45:17.052Z,24.30
2023-05-21T13:47:46.725Z,24.20
2023-05-21T13:50:15.058Z,24.00
2023-05-21T13:52:43.237Z,24.30
2023-05-21T13:55:12.088Z,24.30
2023-05-21T13:57:40.699Z,24.10
2023-05-21T14:00:12.708Z,23.90
2023-05-21T14:02:43.033Z,23.70
2023-05-21T14:05:12.636Z,23.70
2023-05-21T14:07:42.041Z,23.80
2023-05-21T14:10:11.090Z,23.90
2023-05-21T14:12:39.321Z,24.20
2023-05-21T14:15:08.759Z,23.90
2023-05-21T14:17:36.990Z,23.90
2023-05-21T14:20:08.092Z,23.90
2023-05-21T14:22:36.400Z,24.10
2023-05-21T14:25:04.840Z,24.00
2023-05-21T14:27:33.055Z,23.90
2023-05-21T14:30:01.220Z,23.80
2023-05-21T14:32:29.534Z,23.90
2023-05-21T14:34:57.773Z,24.10
2023-05-21T14:37:27.287Z,24.00
2023-05-21T14:39:55.421Z,23.80
2023-05-21T14:42:23.619Z,23.80
2023-05-21T14:44:52.420Z,23.70
2023-05-21T14:47:20.733Z,24.00
2023-05-21T14:49:51.389Z,24.20
2023-05-21T14:52:19.976Z,24.30
2023-05-21T14:54:49.493Z,24.20
2023-05-21T14:57:17.801Z,24.20
2023-05-21T14:59:45.963Z,24.10
2023-05-21T15:02:14.573Z,24.10
2023-05-21T15:04:42.695Z,24.10
2023-05-21T15:19:24.662Z,23.80
2023-05-21T15:21:53.135Z,23.70
2023-05-21T15:24:21.632Z,23.70
2023-05-21T15:26:49.940Z,23.70
2023-05-21T15:29:18.116Z,23.70
2023-05-21T15:31:46.275Z,23.80
2023-05-21T15:34:14.652Z,23.70
2023-05-21T15:36:44.219Z,23.60
2023-05-21T15:39:12.464Z,23.90
2023-05-21T15:41:41.615Z,23.90
2023-05-21T15:44:09.834Z,23.80
2023-05-21T15:46:38.235Z,23.90
2023-05-21T15:49:09.614Z,23.80
2023-05-21T15:51:38.529Z,23.80
2023-05-21T15:54:08.155Z,24.00
2023-05-21T15:56:36.493Z,23.90
2023-05-21T15:59:04.671Z,23.90
2023-05-21T16:01:32.993Z,23.80
2023-05-21T16:04:02.060Z,23.70
2023-05-21T16:06:31.518Z,23.70
2023-05-21T16:08:59.765Z,23.60
2023-05-21T16:11:29.799Z,23.60
2023-05-21T16:13:58.371Z,23.70
2023-05-21T16:16:26.538Z,23.70
2023-05-21T16:18:55.161Z,23.60
2023-05-21T16:21:23.336Z,23.60
2023-05-21T16:23:51.431Z,23.60
2023-05-21T16:26:19.695Z,23.80
2023-05-21T16:28:49.211Z,23.80
2023-05-21T16:31:17.433Z,24.00
2023-05-21T16:33:45.644Z,23.80
2023-05-21T16:36:15.387Z,23.60
2023-05-21T16:38:44.739Z,23.60
2023-05-21T16:41:13.054Z,23.60
2023-05-21T16:48:05.404Z,23.50
2023-05-21T16:50:35.229Z,23.70
2023-05-21T16:53:03.649Z,23.60
2023-05-21T16:55:32.570Z,23.50
2023-05-21T16:58:01.972Z,23.60
2023-05-21T17:13:17.550Z,23.50
2023-05-21T17:15:47.764Z,23.50
2023-05-21T17:18:16.005Z,23.40
2023-05-21T17:20:44.271Z,23.40
2023-05-21T17:23:12.866Z,23.30
2023-05-21T17:25:41.487Z,23.40
2023-05-21T17:28:09.833Z,23.30
2023-05-21T17:30:37.983Z,23.20
2023-05-21T17:33:07.751Z,23.30
2023-05-21T17:35:36.306Z,23.20
2023-05-21T17:38:04.553Z,23.30
2023-05-21T17:40:32.717Z,23.20
2023-05-21T17:54:35.249Z,23.10
2023-05-21T18:12:18.529Z,23.10
2023-05-21T18:14:46.678Z,23.00
2023-05-21T18:17:14.879Z,23.00
2023-05-21T18:19:43.032Z,23.00
2023-05-21T18:22:12.192Z,22.90
2023-05-21T18:24:40.408Z,22.80
2023-05-21T18:27:08.538Z,22.80
2023-05-21T18:29:38.013Z,22.80
2023-05-21T18:32:06.844Z,22.70
2023-05-21T18:34:35.002Z,22.80
2023-05-21T18:37:03.169Z,22.80
2023-05-21T18:39:31.286Z,22.70
2023-05-21T18:42:12.103Z,22.70
2023-05-21T18:44:45.785Z,22.70
2023-05-21T18:47:14.271Z,22.60
2023-05-21T18:49:42.395Z,22.50
2023-05-21T18:52:10.614Z,22.50
2023-05-21T18:54:38.770Z,22.40
2023-05-21T18:57:07.332Z,22.40
2023-05-21T18:59:35.621Z,22.40
2023-05-21T19:02:06.421Z,22.30
2023-05-21T19:04:34.693Z,22.20
2023-05-21T19:07:02.999Z,22.10
2023-05-21T19:09:31.112Z,22.10
2023-05-21T19:12:00.578Z,22.00
2023-05-21T19:14:28.760Z,22.00
2023-05-21T19:16:57.329Z,21.90
2023-05-21T19:19:26.909Z,21.90
2023-05-21T19:21:55.205Z,21.80
2023-05-21T19:24:23.377Z,21.80
2023-05-21T19:26:51.475Z,21.70
2023-05-21T19:29:19.569Z,21.70
2023-05-21T19:31:47.767Z,21.70
2023-05-21T19:34:16.648Z,21.60
2023-05-21T19:36:53.294Z,21.60
2023-05-21T19:39:22.163Z,21.50
2023-05-21T19:41:51.614Z,21.50
2023-05-21T19:44:19.937Z,21.40
2023-05-21T19:46:49.080Z,21.30
2023-05-21T19:49:17.620Z,21.20
2023-05-21T19:51:48.835Z,21.20
2023-05-21T19:54:18.524Z,21.20
2023-05-21T19:56:46.686Z,21.20
2023-05-21T19:59:14.937Z,21.00
2023-05-21T20:01:44.280Z,21.00
2023-05-21T20:04:12.884Z,20.90
2023-05-21T20:06:41.289Z,20.90
2023-05-21T20:09:13.268Z,20.80
2023-05-21T20:11:42.311Z,20.80
2023-05-21T20:14:10.683Z,20.70
2023-05-21T20:16:38.953Z,20.70
2023-05-21T20:19:12.929Z,20.60
2023-05-21T20:21:41.229Z,20.50
2023-05-21T20:24:11.393Z,20.50
2023-05-21T20:26:40.024Z,20.40
2023-05-21T20:29:08.520Z,20.30
2023-05-21T20:31:37.107Z,20.20
2023-05-21T20:34:07.483Z,20.10
2023-05-21T20:36:35.987Z,19.90
2023-05-21T20:39:05.021Z,19.80
2023-05-21T20:41:36.308Z,19.70
2023-05-21T20:44:06.092Z,19.60
2023-05-21T20:46:38.256Z,19.50
2023-05-21T20:49:07.036Z,19.50
2023-05-21T20:51:35.442Z,19.30
2023-05-21T20:54:03.558Z,19.10
2023-05-21T20:56:41.567Z,19.00
2023-05-21T21:14:35.034Z,18.50
2023-05-21T21:17:03.360Z,18.40
2023-05-21T21:19:31.622Z,18.30
2023-05-21T21:22:00.057Z,18.30
2023-05-21T21:24:28.180Z,18.20
2023-05-21T21:26:56.356Z,18.20
2023-05-21T21:29:24.554Z,18.20
2023-05-21T21:31:54.139Z,18.10
2023-05-21T21:34:23.523Z,18.20
2023-05-21T21:36:51.699Z,18.30
2023-05-21T21:39:19.898Z,18.30
2023-05-21T21:41:48.057Z,18.30
2023-05-21T21:44:16.186Z,18.30
2023-05-21T21:46:44.303Z,18.30
2023-05-21T21:49:14.394Z,18.30
2023-05-21T21:51:44.478Z,18.30
2023-05-21T21:54:12.713Z,18.20
2023-05-21T21:56:41.203Z,18.10
2023-05-21T21:59:09.365Z,18.00
2023-05-21T22:01:37.733Z,17.90
2023-05-21T22:04:06.329Z,17.90
2023-05-21T22:06:39.017Z,17.90
2023-05-21T22:09:07.488Z,17.90
2023-05-21T22:11:36.387Z,18.00
2023-05-21T22:14:05.351Z,18.10
2023-05-21T22:16:34.253Z,18.10
2023-05-21T22:19:02.624Z,18.40
2023-05-21T22:21:32.985Z,18.40
2023-05-21T22:24:02.683Z,18.50
2023-05-21T22:26:31.031Z,18.60
2023-05-21T22:29:00.026Z,18.70
2023-05-21T22:31:28.308Z,18.90
2023-05-21T22:33:56.558Z,18.90
2023-05-21T22:36:24.781Z,19.00
2023-05-21T22:38:52.889Z,19.00
2023-05-21T22:41:22.859Z,19.00
2023-05-21T22:43:51.115Z,18.90
2023-05-21T22:46:19.359Z,18.90
2023-05-21T22:48:47.573Z,18.80
2023-05-21T22:51:15.874Z,18.80
2023-05-21T22:53:44.023Z,18.80
2023-05-21T22:56:12.176Z,18.80
2023-05-21T22:58:41.686Z,18.80
2023-05-21T23:01:09.837Z,18.80
2023-05-21T23:03:37.964Z,18.70
2023-05-21T23:06:06.228Z,18.70
2023-05-21T23:08:34.294Z,18.70
2023-05-21T23:23:06.745Z,18.30
2023-05-21T23:25:36.046Z,18.10
2023-05-21T23:28:04.305Z,18.10
2023-05-21T23:30:32.396Z,18.10
2023-05-21T23:33:00.741Z,18.10
2023-05-21T23:35:28.947Z,18.00
2023-05-21T23:37:57.226Z,18.00
2023-05-21T23:40:26.885Z,17.90
2023-05-21T23:42:55.122Z,17.80
2023-05-21T23:45:23.305Z,17.80
2023-05-21T23:47:51.569Z,17.70
2023-05-21T23:50:19.776Z,17.70
2023-05-21T23:52:48.136Z,17.70
2023-05-21T23:55:16.532Z,17.70
2023-05-21T23:57:46.149Z,17.70
